Estación Meteorológica Peña el Pijo (Robertgarden) [ 02/03/23 02:39:50 CET ]

Fecha Hora Presion(HPa) Temp (°C) Humedad % Rocio (°C) Viento ( m/s) Direccion Lluvia 1Hora(mm) Lluvia 24H(mm) LLuvia Total(mm)
2012-Jul-26 01:01:16 1012.200 20.4 50 9.7         167.83
2012-Jul-26 02:01:14 1012.100 19.6 53 9.8         167.83
2012-Jul-26 03:08:05 1011.700 17.8 57 9.1         167.83
2012-Jul-26 04:01:14 1011.300 17.3 59 9.2         167.83
2012-Jul-26 05:01:13 1011.100 16.4 63 9.3         167.83
2012-Jul-26 06:01:12 1011.100 15.4 66 9.1         167.83
2012-Jul-26 07:01:16 1011.400 14.2 70 8.8         167.83
2012-Jul-26 08:01:17 1011.100 14.1 73 9.3         167.83
2012-Jul-26 09:01:14 1011.300 17.6 66 11.2         167.83
2012-Jul-26 10:01:13 1011.000 23.2 47 11.2         167.83
2012-Jul-26 11:01:21 1010.700 27.0 37 11.0 2.3 NNE     167.83
2012-Jul-26 12:01:13 1010.400 28.2 33 10.3         167.83
2012-Jul-26 13:01:13 1010.200 29.9 31 10.9         167.83
2012-Jul-26 14:01:18 1009.600 31.5 31 12.3 1.4 N     167.83
2012-Jul-26 15:01:13 1009.100 33.5 27 11.8 1.3 NE     167.83
2012-Jul-26 16:01:16 1008.800 32.9 29 12.5         167.83
2012-Jul-26 17:01:10 1008.600 33.4 31 14.0 5.8 NE     167.83
2012-Jul-26 18:01:16 1008.100 32.4 33 14.0         167.83
2012-Jul-26 19:01:14 1007.800 31.4 36 14.4 1.6 E     167.83
2012-Jul-26 20:01:14 1008.500 28.9 42 14.7 2.2 ENE     167.83
2012-Jul-26 21:01:12 1009.100 25.5 53 15.2         167.83
2012-Jul-26 22:01:14 1010.100 23.1 66 16.4 0.5 ENE     167.83
2012-Jul-26 23:01:12 1010.600 21.8 68 15.6         167.83

Temperatura Máxima:33°    Temperatura Mínima:14°
Presión Máxima:1012.200 Hpa    Presión Mínima:1007.800 Hpa


Volver